createdAt,value
2018-11-07T00:00:39.658Z,100044.91
2018-11-07T00:03:08.822Z,100045.38
2018-11-07T00:05:37.596Z,100053.77
2018-11-07T00:08:06.584Z,100049.32
2018-11-07T00:10:35.154Z,100054.17
2018-11-07T00:13:03.794Z,100047.73
2018-11-07T00:15:32.537Z,100051.62
2018-11-07T00:18:01.412Z,100056.38
2018-11-07T00:20:30.177Z,100050.13
2018-11-07T00:22:58.933Z,100042.84
2018-11-07T00:25:27.652Z,100043.28
2018-11-07T00:27:56.336Z,100043.20
2018-11-07T00:30:24.982Z,100045.20
2018-11-07T00:32:54.223Z,100050.41
2018-11-07T00:35:23.187Z,100053.08
2018-11-07T00:37:52.052Z,100058.66
2018-11-07T00:40:20.941Z,100051.89
2018-11-07T00:42:49.721Z,100049.96
2018-11-07T00:45:18.506Z,100047.80
2018-11-07T00:47:47.244Z,100052.20
2018-11-07T00:50:17.435Z,100057.32
2018-11-07T00:52:46.618Z,100050.32
2018-11-07T00:55:16.743Z,100052.64
2018-11-07T00:57:45.514Z,100056.46
2018-11-07T01:00:19.826Z,100054.69
2018-11-07T01:02:49.799Z,100053.15
2018-11-07T01:05:18.792Z,100054.64
2018-11-07T01:07:48.900Z,100055.23
2018-11-07T01:10:17.804Z,100052.55
2018-11-07T01:12:46.529Z,100057.39
2018-11-07T01:15:17.567Z,100056.44
2018-11-07T01:17:46.362Z,100055.38
2018-11-07T01:20:15.401Z,100056.59
2018-11-07T01:22:44.612Z,100059.11
2018-11-07T01:25:13.631Z,100060.00
2018-11-07T01:27:42.590Z,100059.77
2018-11-07T01:30:13.662Z,100065.88
2018-11-07T01:32:42.531Z,100053.98
2018-11-07T01:35:11.318Z,100064.90
2018-11-07T01:37:41.040Z,100056.12
2018-11-07T01:40:11.986Z,100057.33
2018-11-07T01:42:43.826Z,100062.38
2018-11-07T01:45:13.454Z,100061.12
2018-11-07T01:47:42.182Z,100068.91
2018-11-07T01:50:12.972Z,100065.65
2018-11-07T01:52:42.029Z,100066.67
2018-11-07T01:55:11.416Z,100063.92
2018-11-07T01:57:40.203Z,100071.59
2018-11-07T02:00:10.919Z,100066.30
2018-11-07T02:02:40.124Z,100069.64
2018-11-07T02:05:08.930Z,100062.80
2018-11-07T02:07:37.703Z,100060.71
2018-11-07T02:10:07.730Z,100055.67
2018-11-07T02:12:37.615Z,100057.45
2018-11-07T02:15:07.169Z,100052.69
2018-11-07T02:17:36.314Z,100054.48
2018-11-07T02:20:05.767Z,100043.63
2018-11-07T02:22:34.574Z,100048.36
2018-11-07T02:25:03.487Z,100045.92
2018-11-07T02:27:32.217Z,100049.89
2018-11-07T02:30:00.931Z,100049.96
2018-11-07T02:32:31.487Z,100047.41
2018-11-07T02:35:00.163Z,100049.32
2018-11-07T02:37:28.860Z,100047.58
2018-11-07T02:39:57.580Z,100048.34
2018-11-07T02:42:26.240Z,100045.00
2018-11-07T02:44:54.884Z,100045.73
2018-11-07T02:47:23.574Z,100047.89
2018-11-07T02:49:52.662Z,100045.34
2018-11-07T02:52:21.728Z,100044.14
2018-11-07T02:54:50.413Z,100054.52
2018-11-07T02:57:19.153Z,100052.33
2018-11-07T02:59:47.957Z,100056.36
2018-11-07T03:02:16.564Z,100063.22
2018-11-07T03:04:45.127Z,100065.62
2018-11-07T03:07:13.844Z,100061.61
2018-11-07T03:09:42.602Z,100061.34
2018-11-07T03:12:11.240Z,100070.03
2018-11-07T03:14:39.845Z,100075.03
2018-11-07T03:17:08.675Z,100075.63
2018-11-07T03:19:37.669Z,100081.48
2018-11-07T03:22:06.665Z,100084.39
2018-11-07T03:24:35.533Z,100083.00
2018-11-07T03:27:04.254Z,100093.09
2018-11-07T03:29:33.068Z,100092.16
2018-11-07T03:32:01.847Z,100089.17
2018-11-07T03:34:30.618Z,100082.83
2018-11-07T03:36:59.405Z,100093.49
2018-11-07T03:39:28.225Z,100089.42
2018-11-07T03:41:57.064Z,100094.13
2018-11-07T03:44:26.140Z,100076.52
2018-11-07T03:46:54.749Z,100079.62
2018-11-07T03:49:23.855Z,100091.75
2018-11-07T03:51:52.590Z,100086.95
2018-11-07T03:54:21.234Z,100083.91
2018-11-07T03:56:49.927Z,100079.62
2018-11-07T03:59:18.623Z,100083.98
2018-11-07T04:01:47.282Z,100085.44
2018-11-07T04:04:16.012Z,100088.20
2018-11-07T04:06:45.056Z,100087.91
2018-11-07T04:09:14.268Z,100091.72
2018-11-07T04:11:43.887Z,100092.64
2018-11-07T04:14:12.627Z,100093.45
2018-11-07T04:16:41.687Z,100089.25
2018-11-07T04:19:10.502Z,100100.77
2018-11-07T04:21:39.726Z,100100.06
2018-11-07T04:24:08.535Z,100093.58
2018-11-07T04:26:38.264Z,100093.48
2018-11-07T04:29:06.994Z,100095.86
2018-11-07T04:31:35.652Z,100081.80
2018-11-07T04:34:05.446Z,100086.19
2018-11-07T04:36:34.385Z,100087.53
2018-11-07T04:39:03.093Z,100081.99
2018-11-07T04:41:31.805Z,100076.00
2018-11-07T04:44:00.486Z,100075.88
2018-11-07T04:46:29.071Z,100083.57
2018-11-07T04:48:57.755Z,100088.27
2018-11-07T04:51:26.335Z,100073.59
2018-11-07T04:53:55.329Z,100078.48
2018-11-07T04:56:23.972Z,100072.13
2018-11-07T04:58:52.754Z,100074.80
2018-11-07T05:01:21.531Z,100071.02
2018-11-07T05:03:50.218Z,100069.14
2018-11-07T05:06:18.856Z,100063.52
2018-11-07T05:08:47.599Z,100067.63
2018-11-07T05:11:16.954Z,100066.83
2018-11-07T05:13:46.550Z,100071.59
2018-11-07T05:16:15.395Z,100073.23
2018-11-07T05:18:44.228Z,100072.75
2018-11-07T05:21:12.946Z,100069.59
2018-11-07T05:23:41.820Z,100066.41
2018-11-07T05:26:11.121Z,100062.83
2018-11-07T05:28:39.818Z,100064.88
2018-11-07T05:31:08.535Z,100065.51
2018-11-07T05:33:37.244Z,100066.73
2018-11-07T05:36:06.399Z,100075.46
2018-11-07T05:38:35.117Z,100068.80
2018-11-07T05:41:03.968Z,100072.88
2018-11-07T05:43:32.612Z,100074.30
2018-11-07T05:46:01.434Z,100074.06
2018-11-07T05:48:30.196Z,100080.39
2018-11-07T05:50:58.897Z,100084.01
2018-11-07T05:53:27.808Z,100088.16
2018-11-07T05:55:56.671Z,100095.41
2018-11-07T05:58:25.339Z,100105.53
2018-11-07T06:00:54.261Z,100110.41
2018-11-07T06:03:23.128Z,100108.31
2018-11-07T06:05:51.855Z,100113.47
2018-11-07T06:08:20.572Z,100118.28
2018-11-07T06:10:49.326Z,100110.38
2018-11-07T06:13:18.099Z,100116.47
2018-11-07T06:15:46.920Z,100116.91
2018-11-07T06:18:15.768Z,100119.22
2018-11-07T06:20:44.456Z,100126.16
2018-11-07T06:23:13.251Z,100123.66
2018-11-07T06:25:42.018Z,100121.75
2018-11-07T06:28:10.913Z,100124.30
2018-11-07T06:30:39.795Z,100122.19
2018-11-07T06:33:08.611Z,100131.77
2018-11-07T06:35:37.372Z,100143.11
2018-11-07T06:38:06.280Z,100136.38
2018-11-07T06:40:34.960Z,100136.11
2018-11-07T06:43:03.647Z,100131.34
2018-11-07T06:45:32.340Z,100133.23
2018-11-07T06:48:01.148Z,100130.67
2018-11-07T06:50:29.916Z,100136.22
2018-11-07T06:52:58.658Z,100132.34
2018-11-07T06:55:27.425Z,100135.73
2018-11-07T06:57:56.476Z,100136.54
2018-11-07T07:00:28.173Z,100144.23
2018-11-07T07:02:58.930Z,100145.86
2018-11-07T07:05:27.737Z,100148.32
2018-11-07T07:07:57.003Z,100145.05
2018-11-07T07:10:26.786Z,100141.87
2018-11-07T07:12:55.705Z,100140.03
2018-11-07T07:15:24.415Z,100140.03
2018-11-07T07:17:53.235Z,100143.20
2018-11-07T07:20:22.127Z,100145.66
2018-11-07T07:22:51.004Z,100150.19
2018-11-07T07:25:19.951Z,100147.72
2018-11-07T07:27:48.682Z,100137.38
2018-11-07T07:30:19.830Z,100142.71
2018-11-07T07:32:48.993Z,100144.73
2018-11-07T07:35:18.923Z,100146.61
2018-11-07T07:37:47.642Z,100145.77
2018-11-07T07:40:17.064Z,100147.61
2018-11-07T07:42:46.523Z,100157.46
2018-11-07T07:45:17.846Z,100156.02
2018-11-07T07:47:47.075Z,100162.76
2018-11-07T07:50:17.250Z,100158.44
2018-11-07T07:52:46.306Z,100150.12
2018-11-07T07:55:20.623Z,100155.97
2018-11-07T07:57:49.370Z,100157.27
2018-11-07T08:00:19.348Z,100149.13
2018-11-07T08:02:49.440Z,100150.61
2018-11-07T08:05:22.868Z,100149.45
2018-11-07T08:07:51.597Z,100148.20
2018-11-07T08:10:21.524Z,100147.84
2018-11-07T08:12:50.828Z,100150.56
2018-11-07T08:15:24.432Z,100156.56
2018-11-07T08:17:53.104Z,100147.89
2018-11-07T08:20:22.100Z,100158.84
2018-11-07T08:22:50.840Z,100154.94
2018-11-07T08:25:29.073Z,100151.88
2018-11-07T08:27:57.771Z,100144.11
2018-11-07T08:30:26.520Z,100150.72
2018-11-07T08:32:55.252Z,100145.46
2018-11-07T08:35:24.072Z,100151.28
2018-11-07T08:37:52.776Z,100155.61
2018-11-07T08:40:22.951Z,100156.08
2018-11-07T08:42:51.870Z,100155.48
2018-11-07T08:45:34.494Z,100161.26
2018-11-07T08:48:03.258Z,100155.37
2018-11-07T08:50:31.848Z,100151.97
2018-11-07T08:53:00.551Z,100157.69
2018-11-07T08:55:29.154Z,100157.91
2018-11-07T08:57:57.972Z,100155.72
2018-11-07T09:00:26.805Z,100163.38
2018-11-07T09:02:55.543Z,100160.56
2018-11-07T09:05:26.407Z,100160.09
2018-11-07T09:07:55.154Z,100159.27
2018-11-07T09:10:24.588Z,100156.79
2018-11-07T09:12:53.336Z,100158.23
2018-11-07T09:15:23.963Z,100160.01
2018-11-07T09:17:52.648Z,100162.95
2018-11-07T09:20:22.540Z,100157.60
2018-11-07T09:22:51.285Z,100152.15
2018-11-07T09:25:20.201Z,100155.59
2018-11-07T09:27:49.143Z,100160.60
2018-11-07T09:30:19.341Z,100150.75
2018-11-07T09:32:48.104Z,100144.47
2018-11-07T09:35:16.847Z,100143.70
2018-11-07T09:37:45.717Z,100145.11
2018-11-07T09:40:15.709Z,100145.63
2018-11-07T09:42:45.054Z,100148.92
2018-11-07T09:45:15.506Z,100152.40
2018-11-07T09:47:45.004Z,100149.90
2018-11-07T09:50:14.852Z,100150.23
2018-11-07T09:52:44.920Z,100150.66
2018-11-07T09:55:15.169Z,100147.80
2018-11-07T09:57:44.127Z,100149.37
2018-11-07T10:00:16.792Z,100145.58
2018-11-07T10:02:45.963Z,100148.70
2018-11-07T10:05:15.696Z,100150.63
2018-11-07T10:07:44.386Z,100149.37
2018-11-07T10:10:18.312Z,100149.48
2018-11-07T10:12:47.327Z,100148.66
2018-11-07T10:15:16.323Z,100151.17
2018-11-07T10:17:45.126Z,100153.19
2018-11-07T10:20:17.260Z,100151.03
2018-11-07T10:22:46.629Z,100148.91
2018-11-07T10:25:17.156Z,100146.13
2018-11-07T10:27:47.033Z,100145.30
2018-11-07T10:30:18.287Z,100145.09
2018-11-07T10:32:48.075Z,100140.89
2018-11-07T10:35:25.943Z,100134.67
2018-11-07T10:37:54.848Z,100139.63
2018-11-07T10:40:24.845Z,100141.77
2018-11-07T10:42:53.737Z,100138.80
2018-11-07T10:45:22.477Z,100131.38
2018-11-07T10:47:51.706Z,100132.12
2018-11-07T10:50:21.348Z,100134.16
2018-11-07T10:52:50.739Z,100129.07
2018-11-07T10:55:27.331Z,100128.30
2018-11-07T10:57:56.174Z,100127.86
2018-11-07T11:00:30.321Z,100128.12
2018-11-07T11:03:09.203Z,100126.55
2018-11-07T11:05:39.413Z,100128.30
2018-11-07T11:08:08.608Z,100125.11
2018-11-07T11:10:37.573Z,100121.17
2018-11-07T11:13:06.388Z,100123.87
2018-11-07T11:15:35.224Z,100119.69
2018-11-07T11:18:03.942Z,100125.58
2018-11-07T11:20:32.792Z,100123.09
2018-11-07T11:23:01.473Z,100124.55
2018-11-07T11:25:31.224Z,100127.78
2018-11-07T11:28:00.015Z,100117.78
2018-11-07T11:30:28.720Z,100109.33
2018-11-07T11:32:57.392Z,100122.92
2018-11-07T11:35:27.235Z,100114.77
2018-11-07T11:37:56.100Z,100123.47
2018-11-07T11:40:24.944Z,100118.73
2018-11-07T11:42:53.730Z,100112.48
2018-11-07T11:45:30.245Z,100113.75
2018-11-07T11:47:59.089Z,100117.95
2018-11-07T11:50:27.875Z,100119.34
2018-11-07T11:52:56.556Z,100118.34
2018-11-07T11:55:25.446Z,100118.39
2018-11-07T11:57:54.187Z,100112.80
2018-11-07T12:00:23.094Z,100116.11
2018-11-07T12:02:51.796Z,100108.75
2018-11-07T12:05:20.731Z,100109.58
2018-11-07T12:07:49.635Z,100113.36
2018-11-07T12:10:21.689Z,100111.48
2018-11-07T12:12:51.864Z,100113.10
2018-11-07T12:15:21.659Z,100114.26
2018-11-07T12:17:50.411Z,100109.11
2018-11-07T12:20:19.352Z,100115.06
2018-11-07T12:22:48.152Z,100115.37
2018-11-07T12:25:17.776Z,100114.58
2018-11-07T12:27:47.672Z,100118.12
2018-11-07T12:30:18.484Z,100117.59
2018-11-07T12:32:48.411Z,100112.27
2018-11-07T12:35:17.751Z,100112.30
2018-11-07T12:37:54.479Z,100115.02
2018-11-07T12:40:23.229Z,100107.95
2018-11-07T12:42:51.990Z,100111.18
2018-11-07T12:45:20.780Z,100108.63
2018-11-07T12:47:49.764Z,100105.37
2018-11-07T12:50:21.030Z,100110.78
2018-11-07T12:52:49.737Z,100110.45
2018-11-07T12:55:19.509Z,100112.09
2018-11-07T12:57:56.043Z,100113.20
2018-11-07T13:00:26.222Z,100114.05
2018-11-07T13:02:55.032Z,100113.31
2018-11-07T13:05:24.956Z,100105.31
2018-11-07T13:07:54.700Z,100106.71
2018-11-07T13:10:23.923Z,100109.45
2018-11-07T13:12:53.113Z,100107.23
2018-11-07T13:15:21.980Z,100104.75
2018-11-07T13:17:51.563Z,100109.58
2018-11-07T13:20:21.682Z,100117.18
2018-11-07T13:22:51.715Z,100109.30
2018-11-07T13:25:20.848Z,100117.45
2018-11-07T13:27:53.115Z,100114.48
2018-11-07T13:30:29.619Z,100115.59
2018-11-07T13:32:58.355Z,100116.17
2018-11-07T13:35:27.072Z,100114.58
2018-11-07T13:38:00.912Z,100113.77
2018-11-07T13:40:29.540Z,100116.73
2018-11-07T13:42:58.287Z,100115.42
2018-11-07T13:45:27.084Z,100113.66
2018-11-07T13:47:56.892Z,100109.22
2018-11-07T13:50:25.540Z,100117.53
2018-11-07T13:52:54.245Z,100113.17
2018-11-07T13:55:23.038Z,100123.72
2018-11-07T13:58:12.465Z,100127.07
2018-11-07T14:00:41.251Z,100124.73
2018-11-07T14:03:10.029Z,100128.87
2018-11-07T14:05:38.972Z,100116.75
2018-11-07T14:08:07.668Z,100125.95
2018-11-07T14:10:36.467Z,100125.88
2018-11-07T14:13:05.201Z,100125.33
2018-11-07T14:15:33.995Z,100126.18
2018-11-07T14:18:04.821Z,100125.66
2018-11-07T14:20:33.567Z,100131.87
2018-11-07T14:23:02.328Z,100135.14
2018-11-07T14:25:31.355Z,100141.91
2018-11-07T14:28:00.279Z,100136.45
2018-11-07T14:30:29.172Z,100137.76
2018-11-07T14:32:59.130Z,100140.11
2018-11-07T14:35:27.879Z,100139.53
2018-11-07T14:37:57.776Z,100138.64
2018-11-07T14:40:26.505Z,100144.44
2018-11-07T14:42:55.277Z,100142.32
2018-11-07T14:45:24.076Z,100146.09
2018-11-07T14:47:53.932Z,100147.92
2018-11-07T14:50:22.694Z,100159.11
2018-11-07T14:52:51.412Z,100163.77
2018-11-07T14:55:20.197Z,100163.31
2018-11-07T14:57:48.969Z,100174.69
2018-11-07T15:00:18.331Z,100181.52
2018-11-07T15:02:47.353Z,100184.40
2018-11-07T15:05:17.203Z,100190.20
2018-11-07T15:07:58.814Z,100195.12
2018-11-07T15:10:54.880Z,100188.56
2018-11-07T15:13:23.687Z,100190.77
2018-11-07T15:15:52.472Z,100196.58
2018-11-07T15:18:21.152Z,100201.08
2018-11-07T15:20:50.124Z,100200.48
2018-11-07T15:23:18.976Z,100200.14
2018-11-07T15:25:47.784Z,100202.94
2018-11-07T15:28:21.998Z,100200.58
2018-11-07T15:30:50.695Z,100212.52
2018-11-07T15:33:19.533Z,100211.34
2018-11-07T15:35:48.342Z,100224.34
2018-11-07T15:38:18.108Z,100217.94
2018-11-07T15:40:46.863Z,100215.56
2018-11-07T15:43:15.717Z,100223.91
2018-11-07T15:45:44.499Z,100220.02
2018-11-07T15:48:13.388Z,100224.73
2018-11-07T15:50:47.399Z,100231.38
2018-11-07T15:53:16.262Z,100224.88
2018-11-07T15:55:45.030Z,100227.64
2018-11-07T15:58:31.151Z,100234.28
2018-11-07T16:00:59.925Z,100236.89
2018-11-07T16:03:33.864Z,100240.40
2018-11-07T16:06:02.727Z,100238.81
2018-11-07T16:08:36.545Z,100235.27
2018-11-07T16:11:05.580Z,100237.95
2018-11-07T16:13:34.377Z,100244.09
2018-11-07T16:16:03.105Z,100238.44
2018-11-07T16:18:31.923Z,100245.05
2018-11-07T16:21:00.701Z,100241.40
2018-11-07T16:23:29.592Z,100253.92
2018-11-07T16:25:58.502Z,100251.16
2018-11-07T16:28:27.347Z,100254.89
2018-11-07T16:30:56.133Z,100263.05
2018-11-07T16:33:24.984Z,100262.58
2018-11-07T16:35:53.927Z,100263.98
2018-11-07T16:38:23.050Z,100265.44
2018-11-07T16:40:52.039Z,100267.48
2018-11-07T16:43:20.705Z,100265.67
2018-11-07T16:45:49.408Z,100271.48
2018-11-07T16:48:20.216Z,100268.20
2018-11-07T16:50:48.915Z,100273.75
2018-11-07T16:53:17.872Z,100275.44
2018-11-07T16:55:46.631Z,100279.51
2018-11-07T16:58:15.537Z,100279.16
2018-11-07T17:00:44.858Z,100279.27
2018-11-07T17:03:14.171Z,100284.04
2018-11-07T17:05:42.994Z,100286.73
2018-11-07T17:08:11.899Z,100287.70
2018-11-07T17:10:41.176Z,100290.12
2018-11-07T17:13:10.096Z,100299.59
2018-11-07T17:15:39.001Z,100293.83
2018-11-07T17:18:07.923Z,100297.77
2018-11-07T17:20:37.007Z,100306.03
2018-11-07T17:23:05.975Z,100312.29
2018-11-07T17:25:34.793Z,100318.15
2018-11-07T17:28:03.663Z,100326.95
2018-11-07T17:30:32.489Z,100324.41
2018-11-07T17:36:14.755Z,100331.79
2018-11-07T17:38:44.347Z,100335.13
2018-11-07T17:41:13.789Z,100333.91
2018-11-07T17:43:43.475Z,100335.09
2018-11-07T17:46:13.222Z,100333.95
2018-11-07T17:48:42.346Z,100336.75
2018-11-07T17:51:11.707Z,100344.01
2018-11-07T17:53:40.824Z,100347.30
2018-11-07T17:56:10.212Z,100343.88
2018-11-07T17:58:39.281Z,100348.77
2018-11-07T18:01:08.791Z,100351.00
2018-11-07T18:03:37.812Z,100353.44
2018-11-07T18:06:06.982Z,100350.57
2018-11-07T18:08:36.323Z,100356.59
2018-11-07T18:11:05.966Z,100355.33
2018-11-07T18:13:35.289Z,100359.48
2018-11-07T18:16:04.637Z,100360.88
2018-11-07T18:18:34.017Z,100362.23
2018-11-07T18:21:03.565Z,100364.51
2018-11-07T18:23:32.842Z,100365.10
2018-11-07T18:26:02.289Z,100360.66
2018-11-07T18:28:31.742Z,100366.93
2018-11-07T18:31:01.196Z,100369.89
2018-11-07T18:33:32.017Z,100377.88
2018-11-07T18:36:01.619Z,100373.78
2018-11-07T18:38:31.034Z,100372.44
2018-11-07T18:41:00.522Z,100377.53
2018-11-07T18:43:30.043Z,100379.91
2018-11-07T18:45:59.451Z,100374.67
2018-11-07T18:48:28.764Z,100378.56
2018-11-07T18:50:58.321Z,100380.52
2018-11-07T18:53:27.895Z,100383.70
2018-11-07T18:55:57.341Z,100385.89
2018-11-07T18:58:26.850Z,100387.23
2018-11-07T19:00:56.267Z,100385.14
2018-11-07T19:03:25.758Z,100388.58
2018-11-07T19:05:55.211Z,100391.68
2018-11-07T19:08:24.712Z,100392.64
2018-11-07T19:10:54.437Z,100396.22
2018-11-07T19:13:23.902Z,100397.97
2018-11-07T19:15:53.448Z,100402.42
2018-11-07T19:18:23.142Z,100399.80
2018-11-07T19:20:52.694Z,100405.72
2018-11-07T19:23:22.038Z,100410.48
2018-11-07T19:25:51.662Z,100411.23
2018-11-07T19:28:21.284Z,100417.42
2018-11-07T19:30:50.728Z,100423.38
2018-11-07T19:33:20.991Z,100425.62
2018-11-07T19:35:50.431Z,100422.77
2018-11-07T19:38:19.999Z,100432.09
2018-11-07T19:40:49.466Z,100430.66
2018-11-07T19:43:18.935Z,100433.99
2018-11-07T19:45:48.434Z,100431.30
2018-11-07T19:48:17.918Z,100437.50
2018-11-07T19:50:47.392Z,100441.70
2018-11-07T19:53:16.805Z,100441.47
2018-11-07T19:55:46.155Z,100448.94
2018-11-07T19:58:15.568Z,100450.28
2018-11-07T20:00:45.037Z,100457.58
2018-11-07T20:03:14.932Z,100462.67
2018-11-07T20:05:44.488Z,100463.54
2018-11-07T20:08:14.038Z,100475.48
2018-11-07T20:10:43.921Z,100479.14
2018-11-07T20:13:13.449Z,100479.48
2018-11-07T20:15:43.027Z,100485.23
2018-11-07T20:18:12.535Z,100490.44
2018-11-07T20:20:42.003Z,100496.47
2018-11-07T20:23:11.519Z,100507.83
2018-11-07T20:25:40.907Z,100508.77
2018-11-07T20:28:10.485Z,100515.17
2018-11-07T20:30:39.959Z,100518.37
2018-11-07T20:33:09.533Z,100513.70
2018-11-07T20:35:39.185Z,100515.63
2018-11-07T20:38:09.275Z,100514.14
2018-11-07T20:40:39.191Z,100519.03
2018-11-07T20:43:08.627Z,100517.42
2018-11-07T20:45:38.033Z,100524.41
2018-11-07T20:48:07.589Z,100528.17
2018-11-07T20:50:37.072Z,100528.50
2018-11-07T20:53:06.705Z,100534.32
2018-11-07T20:55:36.201Z,100531.05
2018-11-07T20:58:07.011Z,100527.02
2018-11-07T21:00:36.457Z,100534.32
2018-11-07T21:03:06.136Z,100539.56
2018-11-07T21:05:35.995Z,100537.59
2018-11-07T21:08:05.557Z,100536.19
2018-11-07T21:10:34.976Z,100538.80
2018-11-07T21:13:04.651Z,100543.14
2018-11-07T21:15:34.089Z,100546.08
2018-11-07T21:18:03.509Z,100545.52
2018-11-07T21:20:33.095Z,100546.01
2018-11-07T21:23:02.740Z,100554.21
2018-11-07T21:25:32.241Z,100558.41
2018-11-07T21:28:01.627Z,100560.20
2018-11-07T21:30:31.105Z,100561.41
2018-11-07T21:33:00.394Z,100563.37
2018-11-07T21:35:30.274Z,100560.23
2018-11-07T21:37:59.549Z,100562.56
2018-11-07T21:40:28.945Z,100564.28
2018-11-07T21:42:58.343Z,100569.78
2018-11-07T21:45:27.734Z,100567.85
2018-11-07T21:47:56.756Z,100564.27
2018-11-07T21:50:26.614Z,100568.02
2018-11-07T21:52:55.795Z,100567.11
2018-11-07T21:55:24.970Z,100567.55
2018-11-07T21:57:54.611Z,100569.66
2018-11-07T22:00:23.953Z,100568.31
2018-11-07T22:02:53.060Z,100571.16
2018-11-07T22:05:22.473Z,100571.88
2018-11-07T22:07:51.718Z,100570.69
2018-11-07T22:10:21.390Z,100576.81
2018-11-07T22:12:50.674Z,100578.44
2018-11-07T22:15:20.119Z,100585.38
2018-11-07T22:17:49.978Z,100588.51
2018-11-07T22:20:21.557Z,100595.61
2018-11-07T22:22:50.595Z,100590.76
2018-11-07T22:25:20.169Z,100598.14
2018-11-07T22:27:49.286Z,100594.70
2018-11-07T22:30:19.179Z,100595.89
2018-11-07T22:32:48.134Z,100596.92
2018-11-07T22:35:18.359Z,100603.95
2018-11-07T22:37:47.826Z,100610.14
2018-11-07T22:40:18.995Z,100609.83
2018-11-07T22:42:48.758Z,100610.97
2018-11-07T22:45:17.769Z,100607.98
2018-11-07T22:47:46.845Z,100614.09
2018-11-07T22:50:17.211Z,100613.03
2018-11-07T22:52:46.529Z,100612.64
2018-11-07T22:55:15.470Z,100614.19
2018-11-07T22:57:44.593Z,100627.92
2018-11-07T23:00:21.053Z,100629.19
2018-11-07T23:02:52.180Z,100626.27
2018-11-07T23:05:21.818Z,100622.23
2018-11-07T23:07:51.328Z,100622.00
2018-11-07T23:10:20.732Z,100627.00
2018-11-07T23:12:50.595Z,100643.63
2018-11-07T23:15:24.619Z,100639.68
2018-11-07T23:17:54.200Z,100644.30
2018-11-07T23:20:23.236Z,100657.72
2018-11-07T23:22:52.536Z,100650.19
2018-11-07T23:25:21.933Z,100652.04
2018-11-07T23:27:51.270Z,100666.52
2018-11-07T23:30:20.313Z,100667.86
2018-11-07T23:32:49.349Z,100665.92
2018-11-07T23:35:18.566Z,100669.55
2018-11-07T23:37:47.891Z,100671.75
2018-11-07T23:40:17.294Z,100678.84
2018-11-07T23:42:46.399Z,100673.91
2018-11-07T23:45:15.513Z,100675.91
2018-11-07T23:47:44.575Z,100673.14
2018-11-07T23:50:13.664Z,100681.04
2018-11-07T23:52:49.815Z,100680.53
2018-11-07T23:55:20.357Z,100681.95
2018-11-07T23:57:50.836Z,100686.34
